sensor_id;sensor_type;location;lat;lon;timestamp;P1;durP1;ratioP1;P2;durP2;ratioP2
79790;SDS011;69278;52.220;5.172;2023-08-07T00:01:43;8.07;;;1.90;;
79790;SDS011;69278;52.220;5.172;2023-08-07T00:04:10;10.38;;;2.00;;
79790;SDS011;69278;52.220;5.172;2023-08-07T00:06:36;7.93;;;1.60;;
79790;SDS011;69278;52.220;5.172;2023-08-07T00:09:03;10.75;;;1.80;;
79790;SDS011;69278;52.220;5.172;2023-08-07T00:11:30;9.65;;;1.90;;
79790;SDS011;69278;52.220;5.172;2023-08-07T00:13:57;7.30;;;1.93;;
79790;SDS011;69278;52.220;5.172;2023-08-07T00:16:24;12.55;;;2.13;;
79790;SDS011;69278;52.220;5.172;2023-08-07T00:18:51;8.90;;;2.25;;
79790;SDS011;69278;52.220;5.172;2023-08-07T00:21:22;10.02;;;2.10;;
79790;SDS011;69278;52.220;5.172;2023-08-07T00:23:49;10.25;;;2.40;;
79790;SDS011;69278;52.220;5.172;2023-08-07T00:26:16;10.30;;;2.13;;
79790;SDS011;69278;52.220;5.172;2023-08-07T00:28:42;5.22;;;1.48;;
79790;SDS011;69278;52.220;5.172;2023-08-07T00:31:09;9.52;;;1.90;;
79790;SDS011;69278;52.220;5.172;2023-08-07T00:33:36;6.55;;;1.85;;
79790;SDS011;69278;52.220;5.172;2023-08-07T00:36:03;5.75;;;1.60;;
79790;SDS011;69278;52.220;5.172;2023-08-07T00:38:30;10.53;;;2.00;;
79790;SDS011;69278;52.220;5.172;2023-08-07T00:40:56;9.40;;;2.15;;
79790;SDS011;69278;52.220;5.172;2023-08-07T00:43:23;7.07;;;2.00;;
79790;SDS011;69278;52.220;5.172;2023-08-07T00:45:49;8.32;;;1.80;;
79790;SDS011;69278;52.220;5.172;2023-08-07T00:48:16;8.75;;;2.65;;
79790;SDS011;69278;52.220;5.172;2023-08-07T00:50:42;7.70;;;2.10;;
79790;SDS011;69278;52.220;5.172;2023-08-07T00:53:13;11.77;;;2.20;;
79790;SDS011;69278;52.220;5.172;2023-08-07T00:55:41;7.75;;;1.77;;
79790;SDS011;69278;52.220;5.172;2023-08-07T00:58:08;9.35;;;2.00;;
79790;SDS011;69278;52.220;5.172;2023-08-07T01:00:34;15.65;;;2.20;;
79790;SDS011;69278;52.220;5.172;2023-08-07T01:03:01;8.67;;;2.10;;
79790;SDS011;69278;52.220;5.172;2023-08-07T01:05:31;12.13;;;2.20;;
79790;SDS011;69278;52.220;5.172;2023-08-07T01:07:57;10.93;;;2.00;;
79790;SDS011;69278;52.220;5.172;2023-08-07T01:10:31;12.93;;;2.42;;
79790;SDS011;69278;52.220;5.172;2023-08-07T01:13:01;8.95;;;1.90;;
79790;SDS011;69278;52.220;5.172;2023-08-07T01:16:10;6.13;;;1.80;;
79790;SDS011;69278;52.220;5.172;2023-08-07T01:18:45;7.05;;;2.22;;
79790;SDS011;69278;52.220;5.172;2023-08-07T01:21:18;11.25;;;2.00;;
79790;SDS011;69278;52.220;5.172;2023-08-07T01:23:46;7.13;;;1.95;;
79790;SDS011;69278;52.220;5.172;2023-08-07T01:26:15;8.73;;;2.10;;
79790;SDS011;69278;52.220;5.172;2023-08-07T01:28:46;8.53;;;2.07;;
79790;SDS011;69278;52.220;5.172;2023-08-07T01:31:29;8.88;;;2.13;;
79790;SDS011;69278;52.220;5.172;2023-08-07T01:34:01;5.60;;;1.90;;
79790;SDS011;69278;52.220;5.172;2023-08-07T01:36:34;8.18;;;2.08;;
79790;SDS011;69278;52.220;5.172;2023-08-07T01:39:01;9.60;;;2.15;;
79790;SDS011;69278;52.220;5.172;2023-08-07T01:41:29;8.90;;;1.90;;
79790;SDS011;69278;52.220;5.172;2023-08-07T01:43:57;5.82;;;1.90;;
79790;SDS011;69278;52.220;5.172;2023-08-07T01:46:23;9.52;;;2.00;;
79790;SDS011;69278;52.220;5.172;2023-08-07T01:48:50;8.07;;;1.65;;
79790;SDS011;69278;52.220;5.172;2023-08-07T01:51:16;11.02;;;2.40;;
79790;SDS011;69278;52.220;5.172;2023-08-07T01:53:43;11.20;;;2.03;;
79790;SDS011;69278;52.220;5.172;2023-08-07T01:56:09;9.85;;;1.92;;
79790;SDS011;69278;52.220;5.172;2023-08-07T01:58:36;8.68;;;2.05;;
79790;SDS011;69278;52.220;5.172;2023-08-07T02:01:02;8.55;;;2.10;;
79790;SDS011;69278;52.220;5.172;2023-08-07T02:03:28;9.05;;;2.20;;
79790;SDS011;69278;52.220;5.172;2023-08-07T02:05:55;8.07;;;1.80;;
79790;SDS011;69278;52.220;5.172;2023-08-07T02:08:22;9.75;;;1.80;;
79790;SDS011;69278;52.220;5.172;2023-08-07T02:10:48;10.65;;;2.03;;
79790;SDS011;69278;52.220;5.172;2023-08-07T02:13:14;8.27;;;2.05;;
79790;SDS011;69278;52.220;5.172;2023-08-07T02:15:41;8.02;;;2.08;;
79790;SDS011;69278;52.220;5.172;2023-08-07T02:18:07;11.23;;;2.10;;
79790;SDS011;69278;52.220;5.172;2023-08-07T02:20:34;9.35;;;2.03;;
79790;SDS011;69278;52.220;5.172;2023-08-07T02:23:00;9.23;;;1.95;;
79790;SDS011;69278;52.220;5.172;2023-08-07T02:25:27;7.95;;;1.90;;
79790;SDS011;69278;52.220;5.172;2023-08-07T02:27:53;6.47;;;1.85;;
79790;SDS011;69278;52.220;5.172;2023-08-07T02:30:20;7.70;;;1.63;;
79790;SDS011;69278;52.220;5.172;2023-08-07T02:32:46;8.93;;;2.40;;
79790;SDS011;69278;52.220;5.172;2023-08-07T02:35:13;10.82;;;2.20;;
79790;SDS011;69278;52.220;5.172;2023-08-07T02:37:39;8.80;;;2.40;;
79790;SDS011;69278;52.220;5.172;2023-08-07T02:40:06;9.50;;;2.08;;
79790;SDS011;69278;52.220;5.172;2023-08-07T02:42:32;11.90;;;2.50;;
79790;SDS011;69278;52.220;5.172;2023-08-07T02:44:59;10.32;;;2.10;;
79790;SDS011;69278;52.220;5.172;2023-08-07T02:47:25;5.55;;;1.63;;
79790;SDS011;69278;52.220;5.172;2023-08-07T02:49:52;9.77;;;1.95;;
79790;SDS011;69278;52.220;5.172;2023-08-07T02:52:18;5.90;;;1.80;;
79790;SDS011;69278;52.220;5.172;2023-08-07T02:54:45;7.50;;;1.90;;
79790;SDS011;69278;52.220;5.172;2023-08-07T02:57:11;9.98;;;1.40;;
79790;SDS011;69278;52.220;5.172;2023-08-07T02:59:38;9.35;;;1.75;;
79790;SDS011;69278;52.220;5.172;2023-08-07T03:02:04;4.30;;;1.33;;
79790;SDS011;69278;52.220;5.172;2023-08-07T03:04:31;4.60;;;1.70;;
79790;SDS011;69278;52.220;5.172;2023-08-07T03:06:57;4.90;;;1.60;;
79790;SDS011;69278;52.220;5.172;2023-08-07T03:09:24;5.20;;;1.58;;
79790;SDS011;69278;52.220;5.172;2023-08-07T03:11:50;4.95;;;1.42;;
79790;SDS011;69278;52.220;5.172;2023-08-07T03:14:17;5.53;;;1.55;;
79790;SDS011;69278;52.220;5.172;2023-08-07T03:16:44;6.15;;;1.67;;
79790;SDS011;69278;52.220;5.172;2023-08-07T03:19:11;8.17;;;1.50;;
79790;SDS011;69278;52.220;5.172;2023-08-07T03:21:37;8.68;;;1.40;;
79790;SDS011;69278;52.220;5.172;2023-08-07T03:24:05;7.53;;;1.60;;
79790;SDS011;69278;52.220;5.172;2023-08-07T03:26:31;6.85;;;1.60;;
79790;SDS011;69278;52.220;5.172;2023-08-07T03:28:58;4.30;;;1.40;;
79790;SDS011;69278;52.220;5.172;2023-08-07T03:31:24;5.70;;;1.70;;
79790;SDS011;69278;52.220;5.172;2023-08-07T03:33:51;6.88;;;1.70;;
79790;SDS011;69278;52.220;5.172;2023-08-07T03:36:17;3.88;;;1.42;;
79790;SDS011;69278;52.220;5.172;2023-08-07T03:38:44;4.88;;;1.55;;
79790;SDS011;69278;52.220;5.172;2023-08-07T03:41:11;7.03;;;1.75;;
79790;SDS011;69278;52.220;5.172;2023-08-07T03:43:38;7.77;;;1.70;;
79790;SDS011;69278;52.220;5.172;2023-08-07T03:46:04;6.35;;;1.45;;
79790;SDS011;69278;52.220;5.172;2023-08-07T03:48:31;6.10;;;1.70;;
79790;SDS011;69278;52.220;5.172;2023-08-07T03:51:04;7.63;;;1.70;;
79790;SDS011;69278;52.220;5.172;2023-08-07T03:53:31;8.88;;;1.88;;
79790;SDS011;69278;52.220;5.172;2023-08-07T03:55:58;4.57;;;1.70;;
79790;SDS011;69278;52.220;5.172;2023-08-07T03:58:24;7.20;;;1.70;;
79790;SDS011;69278;52.220;5.172;2023-08-07T04:00:51;10.27;;;1.92;;
79790;SDS011;69278;52.220;5.172;2023-08-07T04:03:19;7.30;;;1.73;;
79790;SDS011;69278;52.220;5.172;2023-08-07T04:05:46;7.78;;;1.85;;
79790;SDS011;69278;52.220;5.172;2023-08-07T04:08:12;10.30;;;1.77;;
79790;SDS011;69278;52.220;5.172;2023-08-07T04:10:39;5.30;;;1.80;;
79790;SDS011;69278;52.220;5.172;2023-08-07T04:13:05;9.00;;;2.10;;
79790;SDS011;69278;52.220;5.172;2023-08-07T04:15:32;9.77;;;1.90;;
79790;SDS011;69278;52.220;5.172;2023-08-07T04:17:58;7.55;;;1.85;;
79790;SDS011;69278;52.220;5.172;2023-08-07T04:20:25;11.43;;;1.90;;
79790;SDS011;69278;52.220;5.172;2023-08-07T04:22:51;7.53;;;1.95;;
79790;SDS011;69278;52.220;5.172;2023-08-07T04:25:18;6.85;;;1.80;;
79790;SDS011;69278;52.220;5.172;2023-08-07T04:27:44;10.98;;;2.22;;
79790;SDS011;69278;52.220;5.172;2023-08-07T04:30:11;6.07;;;2.00;;
79790;SDS011;69278;52.220;5.172;2023-08-07T04:32:38;9.90;;;2.07;;
79790;SDS011;69278;52.220;5.172;2023-08-07T04:35:05;6.50;;;1.88;;
79790;SDS011;69278;52.220;5.172;2023-08-07T04:37:32;11.52;;;1.88;;
79790;SDS011;69278;52.220;5.172;2023-08-07T04:39:58;8.90;;;2.13;;
79790;SDS011;69278;52.220;5.172;2023-08-07T04:42:27;8.68;;;2.00;;
79790;SDS011;69278;52.220;5.172;2023-08-07T04:44:53;8.37;;;2.10;;
79790;SDS011;69278;52.220;5.172;2023-08-07T04:47:20;7.65;;;2.38;;
79790;SDS011;69278;52.220;5.172;2023-08-07T04:49:46;8.48;;;2.08;;
79790;SDS011;69278;52.220;5.172;2023-08-07T04:52:13;8.02;;;2.28;;
79790;SDS011;69278;52.220;5.172;2023-08-07T04:54:51;10.20;;;2.33;;
79790;SDS011;69278;52.220;5.172;2023-08-07T04:57:17;7.73;;;1.93;;
79790;SDS011;69278;52.220;5.172;2023-08-07T04:59:44;15.10;;;2.75;;
79790;SDS011;69278;52.220;5.172;2023-08-07T05:02:11;11.13;;;2.28;;
79790;SDS011;69278;52.220;5.172;2023-08-07T05:04:37;11.30;;;2.50;;
79790;SDS011;69278;52.220;5.172;2023-08-07T05:07:04;11.68;;;2.30;;
79790;SDS011;69278;52.220;5.172;2023-08-07T05:09:30;9.03;;;2.30;;
79790;SDS011;69278;52.220;5.172;2023-08-07T05:11:57;11.05;;;2.08;;
79790;SDS011;69278;52.220;5.172;2023-08-07T05:14:23;8.77;;;2.20;;
79790;SDS011;69278;52.220;5.172;2023-08-07T05:16:50;5.85;;;2.33;;
79790;SDS011;69278;52.220;5.172;2023-08-07T05:19:16;5.22;;;1.65;;
79790;SDS011;69278;52.220;5.172;2023-08-07T05:21:43;4.90;;;1.83;;
79790;SDS011;69278;52.220;5.172;2023-08-07T05:24:10;7.68;;;1.83;;
79790;SDS011;69278;52.220;5.172;2023-08-07T05:26:36;7.15;;;2.00;;
79790;SDS011;69278;52.220;5.172;2023-08-07T05:29:03;6.65;;;1.70;;
79790;SDS011;69278;52.220;5.172;2023-08-07T05:31:30;5.35;;;1.70;;
79790;SDS011;69278;52.220;5.172;2023-08-07T05:33:57;6.87;;;1.70;;
79790;SDS011;69278;52.220;5.172;2023-08-07T05:36:23;11.52;;;1.90;;
79790;SDS011;69278;52.220;5.172;2023-08-07T05:38:50;5.90;;;1.80;;
79790;SDS011;69278;52.220;5.172;2023-08-07T05:41:16;7.22;;;1.85;;
79790;SDS011;69278;52.220;5.172;2023-08-07T05:43:43;7.75;;;1.80;;
79790;SDS011;69278;52.220;5.172;2023-08-07T05:46:09;7.93;;;1.93;;
79790;SDS011;69278;52.220;5.172;2023-08-07T05:48:36;7.90;;;1.70;;
79790;SDS011;69278;52.220;5.172;2023-08-07T05:51:02;9.77;;;2.25;;
79790;SDS011;69278;52.220;5.172;2023-08-07T05:53:29;10.25;;;2.30;;
79790;SDS011;69278;52.220;5.172;2023-08-07T05:55:56;7.65;;;2.38;;
79790;SDS011;69278;52.220;5.172;2023-08-07T05:58:22;8.53;;;2.17;;
79790;SDS011;69278;52.220;5.172;2023-08-07T06:00:49;9.95;;;2.10;;
79790;SDS011;69278;52.220;5.172;2023-08-07T06:03:15;8.20;;;2.00;;
79790;SDS011;69278;52.220;5.172;2023-08-07T06:05:42;8.23;;;2.00;;
79790;SDS011;69278;52.220;5.172;2023-08-07T06:08:08;9.32;;;2.22;;
79790;SDS011;69278;52.220;5.172;2023-08-07T06:10:35;6.93;;;2.10;;
79790;SDS011;69278;52.220;5.172;2023-08-07T06:13:01;8.85;;;2.20;;
79790;SDS011;69278;52.220;5.172;2023-08-07T06:15:29;10.55;;;2.28;;
79790;SDS011;69278;52.220;5.172;2023-08-07T06:17:56;8.65;;;2.38;;
79790;SDS011;69278;52.220;5.172;2023-08-07T06:20:22;9.93;;;2.40;;
79790;SDS011;69278;52.220;5.172;2023-08-07T06:22:49;6.90;;;2.23;;
79790;SDS011;69278;52.220;5.172;2023-08-07T06:25:15;11.73;;;2.55;;
79790;SDS011;69278;52.220;5.172;2023-08-07T06:27:42;9.80;;;2.40;;
79790;SDS011;69278;52.220;5.172;2023-08-07T06:30:08;9.77;;;2.22;;
79790;SDS011;69278;52.220;5.172;2023-08-07T06:32:35;9.80;;;1.98;;
79790;SDS011;69278;52.220;5.172;2023-08-07T06:35:03;10.00;;;2.20;;
79790;SDS011;69278;52.220;5.172;2023-08-07T06:37:30;8.88;;;2.10;;
79790;SDS011;69278;52.220;5.172;2023-08-07T06:39:57;7.28;;;1.95;;
79790;SDS011;69278;52.220;5.172;2023-08-07T06:42:24;10.77;;;2.40;;
79790;SDS011;69278;52.220;5.172;2023-08-07T06:44:50;7.63;;;2.25;;
79790;SDS011;69278;52.220;5.172;2023-08-07T06:47:17;11.37;;;2.60;;
79790;SDS011;69278;52.220;5.172;2023-08-07T06:49:43;10.98;;;2.38;;
79790;SDS011;69278;52.220;5.172;2023-08-07T06:52:10;8.32;;;2.45;;
79790;SDS011;69278;52.220;5.172;2023-08-07T06:54:36;9.02;;;2.30;;
79790;SDS011;69278;52.220;5.172;2023-08-07T06:57:03;10.15;;;2.20;;
79790;SDS011;69278;52.220;5.172;2023-08-07T06:59:29;8.80;;;2.40;;
79790;SDS011;69278;52.220;5.172;2023-08-07T07:01:56;8.88;;;2.25;;
79790;SDS011;69278;52.220;5.172;2023-08-07T07:04:23;9.48;;;2.65;;
79790;SDS011;69278;52.220;5.172;2023-08-07T07:06:49;11.07;;;2.13;;
79790;SDS011;69278;52.220;5.172;2023-08-07T07:09:16;7.20;;;2.28;;
79790;SDS011;69278;52.220;5.172;2023-08-07T07:11:43;11.03;;;2.37;;
79790;SDS011;69278;52.220;5.172;2023-08-07T07:14:10;6.97;;;2.80;;
79790;SDS011;69278;52.220;5.172;2023-08-07T07:16:37;9.73;;;2.72;;
79790;SDS011;69278;52.220;5.172;2023-08-07T07:19:04;9.10;;;2.20;;
79790;SDS011;69278;52.220;5.172;2023-08-07T07:21:34;9.43;;;2.60;;
79790;SDS011;69278;52.220;5.172;2023-08-07T07:24:01;11.70;;;2.50;;
79790;SDS011;69278;52.220;5.172;2023-08-07T07:26:29;9.30;;;2.80;;
79790;SDS011;69278;52.220;5.172;2023-08-07T07:28:55;6.75;;;1.95;;
79790;SDS011;69278;52.220;5.172;2023-08-07T07:31:21;13.02;;;2.60;;
79790;SDS011;69278;52.220;5.172;2023-08-07T07:33:48;11.45;;;2.42;;
79790;SDS011;69278;52.220;5.172;2023-08-07T07:36:15;11.10;;;2.60;;
79790;SDS011;69278;52.220;5.172;2023-08-07T07:38:43;6.05;;;2.10;;
79790;SDS011;69278;52.220;5.172;2023-08-07T07:41:12;11.95;;;2.78;;
79790;SDS011;69278;52.220;5.172;2023-08-07T07:43:38;12.27;;;2.75;;
79790;SDS011;69278;52.220;5.172;2023-08-07T07:46:05;9.05;;;2.50;;
79790;SDS011;69278;52.220;5.172;2023-08-07T07:48:31;7.83;;;2.10;;
79790;SDS011;69278;52.220;5.172;2023-08-07T07:51:02;9.80;;;2.25;;
79790;SDS011;69278;52.220;5.172;2023-08-07T07:53:29;8.95;;;2.15;;
79790;SDS011;69278;52.220;5.172;2023-08-07T07:55:57;10.35;;;2.15;;
79790;SDS011;69278;52.220;5.172;2023-08-07T07:58:23;6.90;;;2.17;;
79790;SDS011;69278;52.220;5.172;2023-08-07T08:00:50;10.13;;;2.50;;
79790;SDS011;69278;52.220;5.172;2023-08-07T08:03:19;7.70;;;2.10;;
79790;SDS011;69278;52.220;5.172;2023-08-07T08:05:50;6.63;;;2.20;;
79790;SDS011;69278;52.220;5.172;2023-08-07T08:08:18;11.35;;;2.40;;
79790;SDS011;69278;52.220;5.172;2023-08-07T08:10:45;9.82;;;1.90;;
79790;SDS011;69278;52.220;5.172;2023-08-07T08:13:14;7.97;;;2.03;;
79790;SDS011;69278;52.220;5.172;2023-08-07T08:15:41;6.18;;;2.25;;
79790;SDS011;69278;52.220;5.172;2023-08-07T08:18:08;6.68;;;2.17;;
79790;SDS011;69278;52.220;5.172;2023-08-07T08:20:36;10.27;;;2.28;;
79790;SDS011;69278;52.220;5.172;2023-08-07T08:23:03;7.80;;;2.25;;
79790;SDS011;69278;52.220;5.172;2023-08-07T08:25:30;8.93;;;1.80;;
79790;SDS011;69278;52.220;5.172;2023-08-07T08:27:57;4.75;;;1.92;;
79790;SDS011;69278;52.220;5.172;2023-08-07T08:30:23;10.38;;;2.30;;
79790;SDS011;69278;52.220;5.172;2023-08-07T08:32:50;5.10;;;1.60;;
79790;SDS011;69278;52.220;5.172;2023-08-07T08:35:16;8.07;;;1.92;;
79790;SDS011;69278;52.220;5.172;2023-08-07T08:37:43;5.70;;;1.67;;
79790;SDS011;69278;52.220;5.172;2023-08-07T08:40:10;8.27;;;2.00;;
79790;SDS011;69278;52.220;5.172;2023-08-07T08:42:38;11.30;;;2.28;;
79790;SDS011;69278;52.220;5.172;2023-08-07T08:45:06;9.85;;;2.20;;
79790;SDS011;69278;52.220;5.172;2023-08-07T08:47:36;8.52;;;2.60;;
79790;SDS011;69278;52.220;5.172;2023-08-07T08:50:08;10.83;;;1.93;;
79790;SDS011;69278;52.220;5.172;2023-08-07T08:52:38;7.65;;;2.30;;
79790;SDS011;69278;52.220;5.172;2023-08-07T08:55:07;7.45;;;2.15;;
79790;SDS011;69278;52.220;5.172;2023-08-07T08:57:34;9.52;;;2.78;;
79790;SDS011;69278;52.220;5.172;2023-08-07T09:00:02;7.63;;;1.88;;
79790;SDS011;69278;52.220;5.172;2023-08-07T09:02:41;12.27;;;2.20;;
79790;SDS011;69278;52.220;5.172;2023-08-07T09:05:09;11.50;;;2.30;;
79790;SDS011;69278;52.220;5.172;2023-08-07T09:07:36;10.35;;;2.15;;
79790;SDS011;69278;52.220;5.172;2023-08-07T09:10:04;10.23;;;2.20;;
79790;SDS011;69278;52.220;5.172;2023-08-07T09:12:32;11.35;;;2.38;;
79790;SDS011;69278;52.220;5.172;2023-08-07T09:15:00;9.27;;;2.47;;
79790;SDS011;69278;52.220;5.172;2023-08-07T09:17:31;6.53;;;2.05;;
79790;SDS011;69278;52.220;5.172;2023-08-07T09:20:01;8.52;;;2.10;;
79790;SDS011;69278;52.220;5.172;2023-08-07T09:22:29;8.38;;;1.80;;
79790;SDS011;69278;52.220;5.172;2023-08-07T09:24:56;8.02;;;1.92;;
79790;SDS011;69278;52.220;5.172;2023-08-07T09:27:26;8.07;;;1.73;;
79790;SDS011;69278;52.220;5.172;2023-08-07T09:29:54;8.57;;;2.03;;
79790;SDS011;69278;52.220;5.172;2023-08-07T09:32:21;6.50;;;2.00;;
79790;SDS011;69278;52.220;5.172;2023-08-07T09:34:50;5.75;;;1.98;;
79790;SDS011;69278;52.220;5.172;2023-08-07T09:37:18;6.88;;;1.92;;
79790;SDS011;69278;52.220;5.172;2023-08-07T09:39:44;9.13;;;2.27;;
79790;SDS011;69278;52.220;5.172;2023-08-07T09:42:13;5.00;;;2.00;;
79790;SDS011;69278;52.220;5.172;2023-08-07T09:44:40;7.05;;;1.92;;
79790;SDS011;69278;52.220;5.172;2023-08-07T09:47:13;8.98;;;2.17;;
79790;SDS011;69278;52.220;5.172;2023-08-07T09:49:40;10.90;;;2.25;;
79790;SDS011;69278;52.220;5.172;2023-08-07T09:52:08;10.87;;;2.30;;
79790;SDS011;69278;52.220;5.172;2023-08-07T09:54:36;8.00;;;2.30;;
79790;SDS011;69278;52.220;5.172;2023-08-07T09:57:04;5.95;;;2.20;;
79790;SDS011;69278;52.220;5.172;2023-08-07T09:59:32;8.02;;;2.33;;
79790;SDS011;69278;52.220;5.172;2023-08-07T10:01:59;5.25;;;1.70;;
79790;SDS011;69278;52.220;5.172;2023-08-07T10:04:28;4.93;;;1.90;;
79790;SDS011;69278;52.220;5.172;2023-08-07T10:06:55;6.28;;;2.20;;
79790;SDS011;69278;52.220;5.172;2023-08-07T10:09:23;3.28;;;1.60;;
79790;SDS011;69278;52.220;5.172;2023-08-07T10:11:50;5.43;;;2.05;;
79790;SDS011;69278;52.220;5.172;2023-08-07T10:14:17;4.70;;;1.85;;
79790;SDS011;69278;52.220;5.172;2023-08-07T10:16:45;5.40;;;1.73;;
79790;SDS011;69278;52.220;5.172;2023-08-07T10:19:12;7.05;;;2.15;;
79790;SDS011;69278;52.220;5.172;2023-08-07T10:21:39;5.13;;;1.55;;
79790;SDS011;69278;52.220;5.172;2023-08-07T10:24:07;7.70;;;2.05;;
79790;SDS011;69278;52.220;5.172;2023-08-07T10:26:35;4.22;;;1.52;;
79790;SDS011;69278;52.220;5.172;2023-08-07T10:29:09;5.97;;;1.53;;
79790;SDS011;69278;52.220;5.172;2023-08-07T10:31:38;6.22;;;1.77;;
79790;SDS011;69278;52.220;5.172;2023-08-07T10:34:08;6.20;;;1.80;;
79790;SDS011;69278;52.220;5.172;2023-08-07T10:36:35;7.85;;;1.80;;
79790;SDS011;69278;52.220;5.172;2023-08-07T10:39:10;7.75;;;2.08;;
79790;SDS011;69278;52.220;5.172;2023-08-07T10:41:38;5.53;;;1.80;;
79790;SDS011;69278;52.220;5.172;2023-08-07T10:44:16;6.47;;;1.90;;
79790;SDS011;69278;52.220;5.172;2023-08-07T10:46:48;6.97;;;1.80;;
79790;SDS011;69278;52.220;5.172;2023-08-07T10:49:38;7.40;;;2.00;;
79790;SDS011;69278;52.220;5.172;2023-08-07T10:52:11;5.18;;;1.60;;
79790;SDS011;69278;52.220;5.172;2023-08-07T10:54:44;4.17;;;1.80;;
79790;SDS011;69278;52.220;5.172;2023-08-07T10:57:13;5.18;;;1.70;;
79790;SDS011;69278;52.220;5.172;2023-08-07T10:59:44;7.20;;;1.77;;
79790;SDS011;69278;52.220;5.172;2023-08-07T11:02:24;5.72;;;1.90;;
79790;SDS011;69278;52.220;5.172;2023-08-07T11:04:54;4.95;;;1.90;;
79790;SDS011;69278;52.220;5.172;2023-08-07T11:07:28;7.10;;;1.80;;
79790;SDS011;69278;52.220;5.172;2023-08-07T11:09:56;8.05;;;2.15;;
79790;SDS011;69278;52.220;5.172;2023-08-07T11:12:26;7.10;;;2.03;;
79790;SDS011;69278;52.220;5.172;2023-08-07T11:14:54;6.60;;;1.77;;
79790;SDS011;69278;52.220;5.172;2023-08-07T11:17:24;6.32;;;2.17;;
79790;SDS011;69278;52.220;5.172;2023-08-07T11:19:52;11.20;;;2.13;;
79790;SDS011;69278;52.220;5.172;2023-08-07T11:22:20;6.88;;;2.00;;
79790;SDS011;69278;52.220;5.172;2023-08-07T11:24:47;6.18;;;1.80;;
79790;SDS011;69278;52.220;5.172;2023-08-07T11:27:13;5.75;;;1.98;;
79790;SDS011;69278;52.220;5.172;2023-08-07T11:29:40;8.02;;;1.98;;
79790;SDS011;69278;52.220;5.172;2023-08-07T11:32:07;5.60;;;1.70;;
79790;SDS011;69278;52.220;5.172;2023-08-07T11:34:36;8.52;;;2.05;;
79790;SDS011;69278;52.220;5.172;2023-08-07T11:37:03;7.97;;;1.80;;
79790;SDS011;69278;52.220;5.172;2023-08-07T11:39:30;7.20;;;1.85;;
79790;SDS011;69278;52.220;5.172;2023-08-07T11:41:56;5.40;;;1.60;;
79790;SDS011;69278;52.220;5.172;2023-08-07T11:44:23;6.37;;;1.70;;
79790;SDS011;69278;52.220;5.172;2023-08-07T11:46:50;2.55;;;1.27;;
79790;SDS011;69278;52.220;5.172;2023-08-07T11:49:17;8.68;;;1.90;;
79790;SDS011;69278;52.220;5.172;2023-08-07T11:51:44;9.30;;;1.77;;
79790;SDS011;69278;52.220;5.172;2023-08-07T11:54:13;6.07;;;1.50;;
79790;SDS011;69278;52.220;5.172;2023-08-07T11:56:41;4.33;;;1.53;;
79790;SDS011;69278;52.220;5.172;2023-08-07T11:59:09;7.32;;;1.80;;
79790;SDS011;69278;52.220;5.172;2023-08-07T12:01:37;3.28;;;1.15;;
79790;SDS011;69278;52.220;5.172;2023-08-07T12:06:31;5.00;;;1.50;;
79790;SDS011;69278;52.220;5.172;2023-08-07T12:08:57;6.67;;;1.70;;
79790;SDS011;69278;52.220;5.172;2023-08-07T12:11:25;4.18;;;1.75;;
79790;SDS011;69278;52.220;5.172;2023-08-07T12:13:52;5.07;;;1.65;;
79790;SDS011;69278;52.220;5.172;2023-08-07T12:16:18;3.22;;;1.40;;
79790;SDS011;69278;52.220;5.172;2023-08-07T12:18:46;5.75;;;1.50;;
79790;SDS011;69278;52.220;5.172;2023-08-07T12:21:22;5.53;;;1.70;;
79790;SDS011;69278;52.220;5.172;2023-08-07T12:23:51;4.43;;;1.35;;
79790;SDS011;69278;52.220;5.172;2023-08-07T12:26:21;4.75;;;1.35;;
79790;SDS011;69278;52.220;5.172;2023-08-07T12:28:47;3.00;;;1.10;;
79790;SDS011;69278;52.220;5.172;2023-08-07T12:31:14;3.72;;;1.30;;
79790;SDS011;69278;52.220;5.172;2023-08-07T12:33:40;2.77;;;1.40;;
79790;SDS011;69278;52.220;5.172;2023-08-07T12:36:07;4.45;;;1.52;;
79790;SDS011;69278;52.220;5.172;2023-08-07T12:38:46;4.10;;;1.40;;
79790;SDS011;69278;52.220;5.172;2023-08-07T12:41:12;2.67;;;1.20;;
79790;SDS011;69278;52.220;5.172;2023-08-07T12:43:43;4.57;;;1.50;;
79790;SDS011;69278;52.220;5.172;2023-08-07T12:46:09;3.80;;;1.50;;
79790;SDS011;69278;52.220;5.172;2023-08-07T12:48:39;3.40;;;1.20;;
79790;SDS011;69278;52.220;5.172;2023-08-07T12:51:05;5.20;;;1.30;;
79790;SDS011;69278;52.220;5.172;2023-08-07T12:53:32;7.20;;;1.55;;
79790;SDS011;69278;52.220;5.172;2023-08-07T12:55:58;5.47;;;1.45;;
79790;SDS011;69278;52.220;5.172;2023-08-07T12:58:24;5.13;;;1.63;;
79790;SDS011;69278;52.220;5.172;2023-08-07T13:00:53;6.75;;;1.67;;
79790;SDS011;69278;52.220;5.172;2023-08-07T13:03:20;2.70;;;1.20;;
79790;SDS011;69278;52.220;5.172;2023-08-07T13:05:47;2.95;;;1.40;;
79790;SDS011;69278;52.220;5.172;2023-08-07T13:08:13;3.92;;;1.60;;
79790;SDS011;69278;52.220;5.172;2023-08-07T13:10:40;5.93;;;1.80;;
79790;SDS011;69278;52.220;5.172;2023-08-07T13:13:07;5.60;;;1.40;;
79790;SDS011;69278;52.220;5.172;2023-08-07T13:15:33;5.28;;;1.77;;
79790;SDS011;69278;52.220;5.172;2023-08-07T13:17:59;5.05;;;1.52;;
79790;SDS011;69278;52.220;5.172;2023-08-07T13:20:27;3.67;;;1.23;;
79790;SDS011;69278;52.220;5.172;2023-08-07T13:22:53;4.30;;;1.73;;
79790;SDS011;69278;52.220;5.172;2023-08-07T13:25:20;4.55;;;1.58;;
79790;SDS011;69278;52.220;5.172;2023-08-07T13:27:46;2.83;;;1.50;;
79790;SDS011;69278;52.220;5.172;2023-08-07T13:30:13;5.47;;;1.60;;
79790;SDS011;69278;52.220;5.172;2023-08-07T13:32:39;4.32;;;1.30;;
79790;SDS011;69278;52.220;5.172;2023-08-07T13:35:06;3.53;;;1.20;;
79790;SDS011;69278;52.220;5.172;2023-08-07T13:37:33;3.28;;;1.40;;
79790;SDS011;69278;52.220;5.172;2023-08-07T13:40:00;3.17;;;1.30;;
79790;SDS011;69278;52.220;5.172;2023-08-07T13:42:26;3.83;;;1.50;;
79790;SDS011;69278;52.220;5.172;2023-08-07T13:44:54;4.00;;;1.40;;
79790;SDS011;69278;52.220;5.172;2023-08-07T13:47:21;3.80;;;1.53;;
79790;SDS011;69278;52.220;5.172;2023-08-07T13:49:48;6.00;;;1.45;;
79790;SDS011;69278;52.220;5.172;2023-08-07T13:52:15;3.15;;;1.30;;
79790;SDS011;69278;52.220;5.172;2023-08-07T13:54:41;3.47;;;1.45;;
79790;SDS011;69278;52.220;5.172;2023-08-07T13:57:08;3.00;;;1.50;;
79790;SDS011;69278;52.220;5.172;2023-08-07T13:59:35;3.73;;;1.60;;
79790;SDS011;69278;52.220;5.172;2023-08-07T14:02:01;5.53;;;1.30;;
79790;SDS011;69278;52.220;5.172;2023-08-07T14:04:28;3.40;;;1.30;;
79790;SDS011;69278;52.220;5.172;2023-08-07T14:06:54;3.28;;;1.27;;
79790;SDS011;69278;52.220;5.172;2023-08-07T14:09:21;3.67;;;1.40;;
79790;SDS011;69278;52.220;5.172;2023-08-07T14:11:48;5.13;;;1.23;;
79790;SDS011;69278;52.220;5.172;2023-08-07T14:14:16;3.00;;;1.10;;
79790;SDS011;69278;52.220;5.172;2023-08-07T14:16:43;6.93;;;1.40;;
79790;SDS011;69278;52.220;5.172;2023-08-07T14:19:10;5.88;;;1.50;;
79790;SDS011;69278;52.220;5.172;2023-08-07T14:21:36;6.28;;;1.42;;
79790;SDS011;69278;52.220;5.172;2023-08-07T14:24:03;8.03;;;1.80;;
79790;SDS011;69278;52.220;5.172;2023-08-07T14:26:30;4.47;;;1.50;;
79790;SDS011;69278;52.220;5.172;2023-08-07T14:28:56;4.53;;;1.73;;
79790;SDS011;69278;52.220;5.172;2023-08-07T14:31:22;5.22;;;1.60;;
79790;SDS011;69278;52.220;5.172;2023-08-07T14:33:49;3.78;;;1.77;;
79790;SDS011;69278;52.220;5.172;2023-08-07T14:36:17;5.10;;;1.63;;
79790;SDS011;69278;52.220;5.172;2023-08-07T14:38:43;8.40;;;1.27;;
79790;SDS011;69278;52.220;5.172;2023-08-07T14:41:10;6.00;;;1.60;;
79790;SDS011;69278;52.220;5.172;2023-08-07T14:43:36;3.33;;;1.40;;
79790;SDS011;69278;52.220;5.172;2023-08-07T14:46:03;3.45;;;1.40;;
79790;SDS011;69278;52.220;5.172;2023-08-07T14:48:29;4.80;;;1.63;;
79790;SDS011;69278;52.220;5.172;2023-08-07T14:50:56;3.15;;;1.50;;